Time;durP1;ratioP1;P1;durP2;ratioP2;P2;SDS_P1;SDS_P2;PMS_P1;PMS_P2;Temp;Humidity;BMP_temperature;BMP_pressure;BME280_temperature;BME280_humidity;BME280_pressure;Samples;Min_cycle;Max_cycle;Signal;HPM_P1;HPM_P2
2021/05/28 00:00:14;;;;;;;23.33;11.68;;;8.70;99.70;;;;;;4896589;29;20406;-85
2021/05/28 00:02:41;;;;;;;28.05;12.65;;;8.70;99.70;;;;;;4939190;28;20801;-86
2021/05/28 00:05:15;;;;;;;28.85;13.35;;;8.70;99.70;;;;;;4913584;29;20051;-87
2021/05/28 00:07:51;;;;;;;31.88;14.65;;;8.70;99.70;;;;;;4927602;29;20067;-85
2021/05/28 00:10:17;;;;;;;30.17;14.80;;;8.70;99.70;;;;;;4927894;29;20051;-87
2021/05/28 00:12:53;;;;;;;30.70;13.77;;;8.70;99.70;;;;;;4913403;29;20075;-85
2021/05/28 00:15:19;;;;;;;29.23;13.77;;;8.60;99.60;;;;;;4941834;28;20517;-85
2021/05/28 00:17:45;;;;;;;28.17;14.85;;;8.60;99.70;;;;;;4896419;29;20047;-86
2021/05/28 00:20:15;;;;;;;33.67;14.93;;;8.60;99.70;;;;;;4926404;29;20047;-86
2021/05/28 00:22:42;;;;;;;36.10;15.20;;;8.60;99.70;;;;;;4910399;29;20056;-87
2021/05/28 00:25:13;;;;;;;33.47;17.85;;;8.60;99.70;;;;;;4936762;28;20056;-86
2021/05/28 00:27:44;;;;;;;31.95;17.77;;;8.60;99.70;;;;;;4943116;28;20103;-86
2021/05/28 00:30:16;;;;;;;34.80;16.95;;;8.60;99.70;;;;;;4943741;28;20066;-85
2021/05/28 00:32:42;;;;;;;38.45;17.08;;;8.60;99.70;;;;;;4928028;29;20156;-86
2021/05/28 00:35:08;;;;;;;30.38;16.90;;;8.50;99.70;;;;;;4930564;29;20122;-85
2021/05/28 00:37:34;;;;;;;31.98;16.35;;;8.50;99.70;;;;;;4897804;29;20140;-85
2021/05/28 00:40:00;;;;;;;32.88;15.95;;;8.50;99.70;;;;;;4894183;29;20171;-86
2021/05/28 00:42:26;;;;;;;33.00;16.02;;;8.50;99.60;;;;;;4928684;29;20431;-86
2021/05/28 00:44:51;;;;;;;36.92;16.67;;;8.50;99.60;;;;;;4890092;29;20127;-85
2021/05/28 00:47:18;;;;;;;36.58;16.85;;;8.50;99.70;;;;;;4896160;29;20132;-85
2021/05/28 00:49:44;;;;;;;34.60;17.70;;;8.50;99.70;;;;;;4925484;29;20047;-88
2021/05/28 00:52:12;;;;;;;34.72;18.08;;;8.50;99.70;;;;;;4912559;29;20526;-85
2021/05/28 00:54:38;;;;;;;33.95;16.67;;;8.40;99.70;;;;;;4945527;28;20314;-86
2021/05/28 00:57:05;;;;;;;32.10;16.95;;;8.40;99.70;;;;;;4912246;29;20487;-87
2021/05/28 00:59:32;;;;;;;37.78;18.60;;;8.40;99.70;;;;;;4911880;29;20035;-85
2021/05/28 01:01:57;;;;;;;37.45;18.60;;;8.40;99.70;;;;;;4897213;29;20047;-86
2021/05/28 01:04:29;;;;;;;39.53;18.25;;;8.40;99.70;;;;;;4897564;29;20103;-85
2021/05/28 01:06:55;;;;;;;40.22;17.55;;;8.40;99.70;;;;;;4926022;29;20500;-85
2021/05/28 01:09:21;;;;;;;37.28;19.00;;;8.40;99.80;;;;;;4955797;28;20070;-85
2021/05/28 01:11:47;;;;;;;31.13;18.92;;;8.40;99.80;;;;;;4927286;29;20483;-85
2021/05/28 01:14:13;;;;;;;44.28;18.88;;;8.40;99.80;;;;;;4914586;29;20127;-85
2021/05/28 01:16:39;;;;;;;36.45;18.23;;;8.40;99.80;;;;;;4882025;29;20051;-85
2021/05/28 01:19:16;;;;;;;37.13;17.70;;;8.40;99.80;;;;;;4885592;29;20138;-84
2021/05/28 01:21:45;;;;;;;42.58;20.83;;;8.30;99.80;;;;;;4942884;29;20367;-87
2021/05/28 01:24:12;;;;;;;41.42;19.02;;;8.40;99.80;;;;;;4931074;29;20467;-88
2021/05/28 01:26:38;;;;;;;41.95;20.27;;;8.30;99.80;;;;;;4930566;29;20089;-88
2021/05/28 01:29:04;;;;;;;35.10;19.13;;;8.30;99.80;;;;;;4946636;29;20530;-85
2021/05/28 01:31:30;;;;;;;31.52;17.77;;;8.30;99.80;;;;;;4912706;29;20078;-85
2021/05/28 01:33:56;;;;;;;33.85;16.50;;;8.30;99.80;;;;;;4898693;29;20039;-87
2021/05/28 01:36:22;;;;;;;34.78;17.27;;;8.30;99.80;;;;;;4915935;29;20055;-86
2021/05/28 01:38:48;;;;;;;35.22;17.17;;;8.30;99.80;;;;;;4914130;29;20450;-85
2021/05/28 01:41:16;;;;;;;38.10;18.42;;;8.30;99.80;;;;;;4912814;29;20035;-85
2021/05/28 01:43:41;;;;;;;38.08;18.05;;;8.20;99.80;;;;;;4929342;29;20158;-88
2021/05/28 01:46:07;;;;;;;35.20;17.88;;;8.30;99.90;;;;;;4889238;29;20035;-86
2021/05/28 01:48:33;;;;;;;38.17;17.85;;;8.30;99.90;;;;;;4930011;29;20035;-85
2021/05/28 01:50:59;;;;;;;37.63;18.55;;;8.30;99.90;;;;;;4946141;28;20110;-84
2021/05/28 01:53:26;;;;;;;43.13;19.25;;;8.30;99.90;;;;;;4948278;29;20031;-85
2021/05/28 01:55:53;;;;;;;33.97;17.15;;;8.30;99.90;;;;;;4915145;29;20036;-86
2021/05/28 01:58:23;;;;;;;42.15;16.67;;;8.30;99.90;;;;;;4941530;29;20066;-86
2021/05/28 02:00:51;;;;;;;31.65;16.45;;;8.30;99.90;;;;;;4898400;29;20058;-86
2021/05/28 02:03:18;;;;;;;31.42;15.70;;;8.30;99.90;;;;;;4929028;29;20063;-86
2021/05/28 02:05:46;;;;;;;31.05;14.55;;;8.30;99.90;;;;;;4962689;28;20566;-85
2021/05/28 02:08:13;;;;;;;32.67;14.55;;;8.30;99.90;;;;;;4914661;29;20415;-85
2021/05/28 02:10:39;;;;;;;31.40;14.65;;;8.30;99.90;;;;;;4929626;29;20062;-87
2021/05/28 02:13:04;;;;;;;33.97;15.98;;;8.20;99.90;;;;;;4960775;28;20042;-87
2021/05/28 02:15:40;;;;;;;40.17;17.10;;;8.20;99.90;;;;;;4955120;29;20111;-89
2021/05/28 02:18:10;;;;;;;30.38;15.48;;;8.20;99.90;;;;;;4931493;29;20491;-85
2021/05/28 02:20:37;;;;;;;29.23;14.77;;;8.20;99.90;;;;;;4945165;28;20063;-85
2021/05/28 02:23:03;;;;;;;30.83;13.70;;;8.20;99.90;;;;;;4928194;29;20044;-84
2021/05/28 02:25:29;;;;;;;34.58;14.18;;;8.20;99.90;;;;;;4913317;29;20118;-85
2021/05/28 02:27:55;;;;;;;28.27;14.15;;;8.20;99.90;;;;;;4945584;28;20031;-86
2021/05/28 02:30:21;;;;;;;26.05;13.57;;;8.20;99.90;;;;;;4940558;28;20315;-84
2021/05/28 02:32:47;;;;;;;28.67;13.63;;;8.20;99.90;;;;;;4930628;29;20131;-85
2021/05/28 02:35:13;;;;;;;29.48;12.50;;;8.20;99.90;;;;;;4898765;29;20043;-84
2021/05/28 02:37:40;;;;;;;34.85;13.02;;;8.20;99.90;;;;;;4930106;29;20031;-86
2021/05/28 02:40:07;;;;;;;29.95;12.32;;;8.20;99.90;;;;;;4910392;29;20032;-86
2021/05/28 02:42:35;;;;;;;31.15;12.63;;;8.20;99.90;;;;;;4898684;29;20044;-87
2021/05/28 02:45:01;;;;;;;21.65;11.68;;;8.20;99.90;;;;;;4928730;29;20039;-85
2021/05/28 02:47:27;;;;;;;30.52;11.95;;;8.10;99.90;;;;;;4898110;29;20038;-85
2021/05/28 02:50:00;;;;;;;26.38;10.98;;;8.10;99.90;;;;;;4945589;28;20516;-85
2021/05/28 02:52:29;;;;;;;28.13;11.18;;;8.20;99.90;;;;;;4912368;29;20597;-87
2021/05/28 02:54:55;;;;;;;25.45;10.85;;;8.20;99.90;;;;;;4943506;28;20479;-87
2021/05/28 02:57:21;;;;;;;24.17;11.80;;;8.20;99.90;;;;;;4956765;28;20683;-85
2021/05/28 02:59:47;;;;;;;26.55;11.32;;;8.20;99.90;;;;;;4941644;28;20130;-89
2021/05/28 03:02:13;;;;;;;28.00;11.45;;;8.20;99.90;;;;;;4914514;29;20422;-86
2021/05/28 03:04:38;;;;;;;21.85;11.55;;;8.20;99.90;;;;;;4913692;29;20071;-87
2021/05/28 03:07:05;;;;;;;31.25;10.95;;;8.20;99.90;;;;;;4928105;29;20510;-88
2021/05/28 03:09:31;;;;;;;25.75;11.63;;;8.20;99.90;;;;;;4929738;29;20039;-87
2021/05/28 03:11:57;;;;;;;28.35;11.32;;;8.20;99.90;;;;;;4941994;28;20159;-88
2021/05/28 03:14:23;;;;;;;25.42;11.95;;;8.30;99.90;;;;;;4929161;29;20569;-85
2021/05/28 03:16:48;;;;;;;29.17;12.55;;;8.20;99.90;;;;;;4910170;29;20052;-86
2021/05/28 03:19:20;;;;;;;22.65;11.98;;;8.20;99.90;;;;;;4895014;29;20392;-85
2021/05/28 03:22:31;;;;;;;27.98;11.63;;;8.20;99.90;;;;;;4925877;29;20051;-87
2021/05/28 03:24:47;;;;;;;24.10;11.82;;;8.20;99.90;;;;;;4912029;29;20686;-85
2021/05/28 03:27:12;;;;;;;30.67;11.63;;;8.30;99.90;;;;;;4912444;29;20047;-85
2021/05/28 03:29:39;;;;;;;24.63;11.27;;;8.30;99.90;;;;;;4879577;29;20035;-88
2021/05/28 03:32:05;;;;;;;28.50;12.32;;;8.20;99.90;;;;;;4881259;29;20495;-85
2021/05/28 03:34:31;;;;;;;26.00;11.90;;;8.20;99.90;;;;;;4911564;29;20071;-85
2021/05/28 03:36:59;;;;;;;26.30;11.82;;;8.30;99.90;;;;;;4942686;28;20126;-87
2021/05/28 03:39:26;;;;;;;30.42;11.68;;;8.30;99.90;;;;;;4897161;29;20486;-87
2021/05/28 03:41:51;;;;;;;28.50;13.52;;;8.30;99.90;;;;;;4909633;29;20055;-85
2021/05/28 03:44:18;;;;;;;26.33;12.80;;;8.30;99.90;;;;;;4942638;28;20035;-86
2021/05/28 03:46:44;;;;;;;29.48;13.13;;;8.30;99.90;;;;;;4896518;29;20040;-84
2021/05/28 03:49:10;;;;;;;26.83;12.00;;;8.30;99.90;;;;;;4943979;28;20538;-85
2021/05/28 03:51:36;;;;;;;22.42;12.23;;;8.30;99.90;;;;;;4943314;29;20044;-85
2021/05/28 03:54:02;;;;;;;24.90;12.07;;;8.30;99.90;;;;;;4927916;29;20114;-89
2021/05/28 03:56:29;;;;;;;20.92;12.05;;;8.30;99.90;;;;;;4944736;29;20110;-86
2021/05/28 03:59:06;;;;;;;23.45;11.65;;;8.30;99.90;;;;;;4895554;29;20522;-85
2021/05/28 04:01:34;;;;;;;23.85;12.70;;;8.30;99.90;;;;;;4922864;29;20035;-85
2021/05/28 04:04:00;;;;;;;24.02;11.60;;;8.30;99.90;;;;;;4942645;28;20431;-84
2021/05/28 04:06:26;;;;;;;25.60;11.35;;;8.30;99.90;;;;;;4951558;28;20028;-85
2021/05/28 04:08:53;;;;;;;27.40;12.75;;;8.40;99.90;;;;;;4894534;29;20139;-85
2021/05/28 04:11:19;;;;;;;27.48;12.55;;;8.40;99.90;;;;;;4896025;29;20130;-86
2021/05/28 04:13:45;;;;;;;24.65;11.80;;;8.40;99.90;;;;;;4942536;28;20410;-86
2021/05/28 04:16:10;;;;;;;23.88;12.23;;;8.40;99.90;;;;;;4894865;29;20055;-85
2021/05/28 04:18:36;;;;;;;27.67;12.68;;;8.40;99.90;;;;;;4919883;29;20401;-86
2021/05/28 04:21:02;;;;;;;29.77;13.80;;;8.40;99.90;;;;;;4941961;28;20066;-85
2021/05/28 04:23:28;;;;;;;31.00;14.23;;;8.40;99.90;;;;;;4882688;29;20513;-88
2021/05/28 04:25:54;;;;;;;31.92;14.38;;;8.50;99.90;;;;;;4881817;29;20033;-85
2021/05/28 04:28:20;;;;;;;31.73;14.73;;;8.50;99.90;;;;;;4892586;29;20048;-86
2021/05/28 04:30:46;;;;;;;27.17;14.70;;;8.50;99.90;;;;;;4878015;29;20090;-86
2021/05/28 04:33:14;;;;;;;28.83;13.70;;;8.50;99.90;;;;;;4927111;29;20036;-85
2021/05/28 04:35:40;;;;;;;29.95;14.50;;;8.50;99.90;;;;;;4943089;29;20101;-87
2021/05/28 04:38:06;;;;;;;31.90;14.50;;;8.50;99.90;;;;;;4932396;29;20067;-85
2021/05/28 04:40:34;;;;;;;28.67;13.80;;;8.60;99.90;;;;;;4924511;29;20350;-84
2021/05/28 04:43:00;;;;;;;26.38;13.23;;;8.60;99.90;;;;;;4896615;29;20055;-84
2021/05/28 04:45:27;;;;;;;31.55;14.45;;;8.60;99.90;;;;;;4926774;29;20056;-84
2021/05/28 04:47:55;;;;;;;29.67;13.63;;;8.60;99.90;;;;;;4930644;29;20071;-85
2021/05/28 04:50:30;;;;;;;25.85;13.10;;;8.70;99.90;;;;;;4883638;29;20048;-84
2021/05/28 04:53:04;;;;;;;29.83;12.57;;;8.70;99.90;;;;;;4940234;28;20044;-84
2021/05/28 04:55:31;;;;;;;31.80;14.45;;;8.70;99.90;;;;;;4935193;29;20091;-85
2021/05/28 04:57:57;;;;;;;24.73;13.52;;;8.70;99.90;;;;;;4931600;29;21354;-85
2021/05/28 05:00:24;;;;;;;27.45;13.50;;;8.80;99.90;;;;;;4918560;29;20051;-84
2021/05/28 05:02:51;;;;;;;35.25;14.10;;;8.80;99.90;;;;;;4954640;28;20027;-85
2021/05/28 05:05:17;;;;;;;30.88;13.00;;;8.90;99.90;;;;;;4932743;29;20067;-84
2021/05/28 05:07:51;;;;;;;32.60;14.48;;;9.00;99.90;;;;;;4932640;29;20039;-85
2021/05/28 05:10:27;;;;;;;25.73;13.68;;;9.00;99.90;;;;;;4931926;29;20150;-85
2021/05/28 05:12:54;;;;;;;31.95;14.30;;;9.10;99.90;;;;;;4916110;29;20047;-85
2021/05/28 05:15:23;;;;;;;31.08;13.52;;;9.20;99.90;;;;;;4917019;29;20523;-85
2021/05/28 05:17:52;;;;;;;24.55;11.80;;;9.20;99.80;;;;;;4919334;29;20063;-85
2021/05/28 05:24:38;;;;;;;24.30;11.90;;;9.30;99.60;;;;;;4881042;29;20083;-85
2021/05/28 05:27:11;;;;;;;28.95;13.52;;;9.30;99.50;;;;;;4947645;28;20043;-85
2021/05/28 05:29:41;;;;;;;26.15;13.25;;;9.40;99.60;;;;;;4922863;29;20055;-85
2021/05/28 05:32:07;;;;;;;26.80;13.48;;;9.40;99.50;;;;;;4936513;29;20040;-83
2021/05/28 05:34:36;;;;;;;27.48;12.18;;;9.50;99.40;;;;;;4951349;29;20484;-84
2021/05/28 05:37:02;;;;;;;30.25;13.20;;;9.50;99.30;;;;;;4950010;28;20063;-84
2021/05/28 05:39:33;;;;;;;29.67;13.15;;;9.50;99.30;;;;;;4947438;28;20051;-84
2021/05/28 05:42:02;;;;;;;26.83;13.18;;;9.50;99.20;;;;;;4933543;29;20051;-84
2021/05/28 05:44:29;;;;;;;32.38;14.45;;;9.50;99.20;;;;;;4929871;29;20054;-84
2021/05/28 05:46:55;;;;;;;29.38;13.38;;;9.50;99.20;;;;;;4945482;28;20085;-84
2021/05/28 05:49:20;;;;;;;30.77;13.93;;;9.70;99.20;;;;;;4932209;29;20106;-85
2021/05/28 05:51:46;;;;;;;24.83;13.70;;;9.80;99.10;;;;;;4903693;29;20040;-85
2021/05/28 05:54:12;;;;;;;26.33;13.20;;;9.80;99.00;;;;;;4950379;28;20034;-84
2021/05/28 05:56:38;;;;;;;24.83;12.73;;;9.90;98.90;;;;;;4938945;29;20109;-84
2021/05/28 05:59:04;;;;;;;30.75;13.20;;;9.90;98.80;;;;;;4913594;29;20138;-84
2021/05/28 06:01:30;;;;;;;27.17;12.35;;;9.90;98.80;;;;;;4931361;29;20075;-84
2021/05/28 06:03:59;;;;;;;27.90;12.52;;;10.00;98.70;;;;;;4946071;29;20497;-85
2021/05/28 06:06:24;;;;;;;27.00;12.73;;;9.90;98.70;;;;;;4928354;29;20196;-84
2021/05/28 06:08:53;;;;;;;24.52;12.13;;;10.00;98.70;;;;;;4926859;29;20160;-84
2021/05/28 06:11:19;;;;;;;25.13;11.88;;;10.00;98.70;;;;;;4948265;28;20095;-85
2021/05/28 06:13:46;;;;;;;23.23;11.82;;;10.20;98.70;;;;;;4933716;29;20091;-84
2021/05/28 06:16:13;;;;;;;20.27;10.90;;;10.30;98.70;;;;;;4950284;29;20032;-84
2021/05/28 06:18:39;;;;;;;27.42;10.73;;;10.40;98.50;;;;;;4932721;29;20083;-85
2021/05/28 06:21:06;;;;;;;23.73;10.18;;;10.50;98.40;;;;;;4934422;29;20036;-84
2021/05/28 06:23:33;;;;;;;22.80;10.63;;;10.50;98.20;;;;;;4935348;29;20545;-84
2021/05/28 06:25:59;;;;;;;20.00;10.25;;;10.60;98.10;;;;;;4903362;29;20072;-86
2021/05/28 06:28:25;;;;;;;24.15;9.70;;;10.60;97.90;;;;;;4918606;29;20035;-84
2021/05/28 06:30:51;;;;;;;28.48;9.48;;;10.60;97.80;;;;;;4934385;29;20039;-83
2021/05/28 06:33:17;;;;;;;24.60;9.50;;;10.70;97.80;;;;;;4917478;29;20032;-84
2021/05/28 06:35:43;;;;;;;25.98;10.00;;;10.70;97.80;;;;;;4917259;29;20035;-83
2021/05/28 06:38:09;;;;;;;22.27;8.82;;;10.80;97.70;;;;;;4942196;29;20407;-84
2021/05/28 06:40:37;;;;;;;23.65;9.00;;;10.90;97.60;;;;;;4955735;28;20490;-84
2021/05/28 06:43:03;;;;;;;21.98;9.00;;;11.10;97.50;;;;;;4919310;29;20050;-83
2021/05/28 06:45:30;;;;;;;22.10;10.00;;;11.10;97.30;;;;;;4935678;29;20475;-83
2021/05/28 06:47:56;;;;;;;25.92;10.00;;;11.20;97.20;;;;;;4950546;29;20377;-84
2021/05/28 06:50:22;;;;;;;21.33;10.02;;;11.20;97.00;;;;;;4918090;29;20043;-83
2021/05/28 06:52:48;;;;;;;20.48;9.48;;;11.30;96.90;;;;;;4916928;29;20064;-83
2021/05/28 06:55:14;;;;;;;21.10;10.63;;;11.40;96.80;;;;;;4937103;29;20032;-82
2021/05/28 06:57:40;;;;;;;21.65;8.68;;;11.40;96.80;;;;;;4926762;29;20051;-84
2021/05/28 07:00:08;;;;;;;17.80;8.73;;;11.40;96.70;;;;;;4915275;29;20078;-82
2021/05/28 07:02:35;;;;;;;19.35;8.23;;;11.40;96.60;;;;;;4932310;29;20031;-83
2021/05/28 07:05:03;;;;;;;20.08;8.57;;;11.50;96.50;;;;;;4930779;29;20043;-83
2021/05/28 07:07:28;;;;;;;22.30;8.52;;;11.60;96.40;;;;;;4914437;29;20066;-84
2021/05/28 07:09:54;;;;;;;24.65;8.57;;;11.60;96.30;;;;;;4912790;29;20538;-82
2021/05/28 07:12:20;;;;;;;22.88;9.90;;;11.80;96.10;;;;;;4933156;29;20043;-83
2021/05/28 07:14:46;;;;;;;19.60;9.10;;;11.90;96.00;;;;;;4914748;29;20046;-83
2021/05/28 07:17:12;;;;;;;21.10;9.93;;;11.90;95.90;;;;;;4930236;29;20036;-82
2021/05/28 07:19:38;;;;;;;15.55;8.73;;;11.90;95.70;;;;;;4948818;28;20059;-83
2021/05/28 07:22:05;;;;;;;18.20;9.40;;;12.00;95.60;;;;;;4933067;29;20048;-82
2021/05/28 07:24:30;;;;;;;12.02;6.68;;;12.10;95.60;;;;;;4907881;29;20200;-83
2021/05/28 07:26:57;;;;;;;19.58;8.95;;;12.20;95.60;;;;;;4942236;28;20065;-83
2021/05/28 07:29:22;;;;;;;18.90;8.73;;;12.30;95.30;;;;;;4948345;28;20036;-82
2021/05/28 07:31:49;;;;;;;20.30;8.73;;;12.30;95.30;;;;;;4949741;29;20434;-82
2021/05/28 07:34:14;;;;;;;24.70;8.13;;;12.40;95.10;;;;;;4948863;29;20039;-82
2021/05/28 07:36:40;;;;;;;19.60;7.95;;;12.50;94.90;;;;;;4928756;29;20040;-83
2021/05/28 07:39:06;;;;;;;19.80;8.55;;;12.60;94.90;;;;;;4947398;29;20165;-83
2021/05/28 07:41:32;;;;;;;18.83;9.48;;;12.70;94.80;;;;;;4932835;29;20046;-83
2021/05/28 07:43:59;;;;;;;16.13;8.50;;;12.70;94.60;;;;;;4916796;29;20334;-82
2021/05/28 07:46:25;;;;;;;20.35;7.72;;;12.80;94.90;;;;;;4916466;29;20083;-83
2021/05/28 07:48:50;;;;;;;14.93;8.27;;;12.80;94.50;;;;;;4929993;29;20040;-82
2021/05/28 07:51:16;;;;;;;12.00;6.35;;;12.90;94.60;;;;;;4929374;29;20055;-83
2021/05/28 07:53:42;;;;;;;10.43;5.50;;;13.00;94.60;;;;;;4931646;29;20519;-83
2021/05/28 07:56:08;;;;;;;13.32;5.10;;;13.10;94.30;;;;;;4929011;29;20036;-83
2021/05/28 07:58:35;;;;;;;10.52;4.93;;;13.20;94.00;;;;;;4913719;29;20044;-82
2021/05/28 08:01:01;;;;;;;13.70;5.10;;;13.20;93.50;;;;;;4945084;28;20048;-82
2021/05/28 08:03:28;;;;;;;11.20;5.60;;;13.30;93.30;;;;;;4913993;29;20092;-83
2021/05/28 08:05:54;;;;;;;11.77;5.35;;;13.30;92.90;;;;;;4946319;29;20039;-81
2021/05/28 08:08:22;;;;;;;10.18;4.78;;;13.40;93.00;;;;;;4927327;29;20043;-82
2021/05/28 08:10:49;;;;;;;10.50;5.00;;;13.50;92.80;;;;;;4928656;29;20082;-82
2021/05/28 08:13:15;;;;;;;11.70;5.05;;;13.60;92.70;;;;;;4929692;29;20040;-83
2021/05/28 08:15:41;;;;;;;11.07;4.75;;;13.60;92.60;;;;;;4945384;28;20035;-83
2021/05/28 08:18:07;;;;;;;10.32;5.00;;;13.60;92.50;;;;;;4913746;29;20061;-83
2021/05/28 08:20:33;;;;;;;9.40;4.60;;;13.60;92.30;;;;;;4901355;29;20055;-83
2021/05/28 08:22:59;;;;;;;11.77;4.60;;;13.60;92.40;;;;;;4912976;29;20126;-82
2021/05/28 08:25:27;;;;;;;8.60;4.63;;;13.50;92.40;;;;;;4930976;29;20064;-82
2021/05/28 08:27:52;;;;;;;9.25;4.50;;;13.50;92.40;;;;;;4930340;29;20059;-83
2021/05/28 08:30:20;;;;;;;9.52;4.70;;;13.60;92.50;;;;;;4931431;29;20082;-82
2021/05/28 08:32:46;;;;;;;9.55;5.00;;;13.70;92.20;;;;;;4925652;29;20039;-82
2021/05/28 08:35:13;;;;;;;14.48;5.22;;;13.70;92.30;;;;;;4950090;29;20174;-81
2021/05/28 08:37:39;;;;;;;13.30;4.68;;;13.80;91.80;;;;;;4934324;29;20465;-82
2021/05/28 08:40:06;;;;;;;12.20;5.57;;;13.90;91.90;;;;;;4933470;29;20067;-83
2021/05/28 08:42:32;;;;;;;9.43;5.00;;;14.00;91.90;;;;;;4949102;29;20514;-82
2021/05/28 08:44:59;;;;;;;14.88;5.45;;;14.00;91.80;;;;;;4948480;29;20032;-82
2021/05/28 08:47:26;;;;;;;10.63;5.28;;;13.90;91.80;;;;;;4932441;29;20479;-82
2021/05/28 08:49:53;;;;;;;9.35;5.00;;;13.90;91.80;;;;;;4932314;29;20043;-82
2021/05/28 08:52:20;;;;;;;13.75;5.90;;;13.90;91.90;;;;;;4932807;29;20045;-82
2021/05/28 08:54:49;;;;;;;11.93;5.70;;;13.80;91.90;;;;;;4965076;28;20036;-82
2021/05/28 08:57:15;;;;;;;10.93;5.15;;;13.90;92.10;;;;;;4932000;29;20032;-82
2021/05/28 08:59:41;;;;;;;9.60;5.55;;;13.90;91.90;;;;;;4926135;29;20111;-84
2021/05/28 09:02:30;;;;;;;11.52;4.82;;;13.90;92.00;;;;;;4949972;29;20051;-82
2021/05/28 09:05:14;;;;;;;15.82;5.45;;;14.00;91.10;;;;;;4925277;29;20036;-82
2021/05/28 09:07:55;;;;;;;14.63;5.13;;;14.10;91.90;;;;;;4933036;29;20052;-81
2021/05/28 09:10:37;;;;;;;10.75;5.00;;;14.20;91.40;;;;;;4919128;29;20123;-81
2021/05/28 09:13:12;;;;;;;14.38;4.72;;;14.30;91.30;;;;;;4934152;29;20044;-84
2021/05/28 09:15:39;;;;;;;9.75;3.97;;;14.30;91.30;;;;;;4940429;29;20028;-81
2021/05/28 09:18:06;;;;;;;11.10;4.75;;;14.40;90.60;;;;;;4949420;29;20035;-81
2021/05/28 09:20:34;;;;;;;11.73;4.90;;;14.40;91.00;;;;;;4915669;29;20039;-80
2021/05/28 09:23:33;;;;;;;10.88;4.15;;;14.60;91.00;;;;;;4955784;28;20060;-82
2021/05/28 09:26:08;;;;;;;9.73;4.93;;;14.70;90.00;;;;;;4905872;29;20211;-82
2021/05/28 09:28:48;;;;;;;13.02;4.20;;;14.80;91.20;;;;;;4916387;29;20714;-81
2021/05/28 09:31:19;;;;;;;7.80;3.90;;;14.80;91.00;;;;;;4919560;29;20046;-82
2021/05/28 09:33:56;;;;;;;12.32;4.30;;;14.70;90.70;;;;;;4934045;29;20036;-80
2021/05/28 09:36:24;;;;;;;11.48;4.28;;;14.70;90.70;;;;;;4930922;29;20112;-83
2021/05/28 09:39:09;;;;;;;8.93;4.50;;;14.60;90.30;;;;;;4915975;29;20134;-82
2021/05/28 09:41:48;;;;;;;6.20;3.88;;;14.50;90.60;;;;;;4933357;29;20550;-82
2021/05/28 09:44:24;;;;;;;12.35;4.30;;;14.50;90.30;;;;;;4917657;29;20375;-81
2021/05/28 09:47:19;;;;;;;8.13;4.07;;;14.50;90.50;;;;;;4918148;29;20254;-81
2021/05/28 09:49:48;;;;;;;9.40;4.07;;;14.50;90.40;;;;;;4942220;28;20036;-81
2021/05/28 09:52:17;;;;;;;13.43;4.53;;;14.50;90.70;;;;;;4919089;29;20067;-80
2021/05/28 09:54:58;;;;;;;6.20;3.60;;;14.50;90.50;;;;;;4933799;29;20058;-82
2021/05/28 09:57:49;;;;;;;11.27;3.47;;;14.50;90.00;;;;;;4948721;29;20043;-84
2021/05/28 10:00:33;;;;;;;7.10;3.67;;;14.50;90.10;;;;;;4940034;28;20048;-82
2021/05/28 10:03:11;;;;;;;7.78;3.38;;;14.60;89.30;;;;;;4933051;29;20042;-82
2021/05/28 10:05:39;;;;;;;7.22;3.42;;;14.60;89.50;;;;;;4948280;28;20094;-82
2021/05/28 10:08:10;;;;;;;6.65;3.65;;;14.70;89.80;;;;;;4932332;29;20028;-81
2021/05/28 10:10:37;;;;;;;8.02;4.25;;;14.70;89.30;;;;;;4919989;29;20044;-82
2021/05/28 10:13:10;;;;;;;11.07;3.78;;;14.70;89.30;;;;;;4937263;29;20044;-82
2021/05/28 10:16:03;;;;;;;8.43;3.50;;;14.70;88.80;;;;;;4943034;28;20042;-81
2021/05/28 10:18:31;;;;;;;7.38;3.13;;;14.70;89.00;;;;;;4920325;29;20055;-83
2021/05/28 10:20:57;;;;;;;6.97;3.17;;;14.70;89.80;;;;;;4965216;28;20231;-83
2021/05/28 10:23:23;;;;;;;8.50;3.22;;;14.80;89.00;;;;;;4934723;29;20039;-82
2021/05/28 10:25:55;;;;;;;7.20;3.10;;;14.90;88.90;;;;;;4943278;29;20400;-81
2021/05/28 10:28:27;;;;;;;6.47;3.07;;;15.00;88.20;;;;;;4933249;29;20040;-80
2021/05/28 10:30:53;;;;;;;9.57;3.28;;;14.90;87.70;;;;;;4936100;29;20354;-82
2021/05/28 10:33:27;;;;;;;5.13;3.00;;;14.90;87.70;;;;;;4933289;29;20075;-83
2021/05/28 10:35:56;;;;;;;7.55;3.20;;;14.80;87.50;;;;;;4919196;29;20403;-83
2021/05/28 10:38:33;;;;;;;7.60;3.10;;;14.80;87.70;;;;;;4949049;28;20090;-81
2021/05/28 10:41:05;;;;;;;6.82;3.10;;;14.90;88.00;;;;;;4933472;29;20043;-81
2021/05/28 10:43:33;;;;;;;7.43;2.92;;;15.00;86.50;;;;;;4932717;29;20062;-83
2021/05/28 10:46:06;;;;;;;6.05;2.72;;;15.00;86.20;;;;;;4916285;29;20054;-82
2021/05/28 10:48:41;;;;;;;7.18;3.35;;;15.10;86.40;;;;;;4915629;29;20074;-82
2021/05/28 10:51:37;;;;;;;6.25;2.78;;;15.20;87.80;;;;;;4947547;28;20036;-82
2021/05/28 10:54:02;;;;;;;5.57;2.90;;;15.30;86.60;;;;;;4929184;29;20055;-82
2021/05/28 10:56:37;;;;;;;6.20;2.70;;;15.30;86.70;;;;;;4932407;29;20036;-82
2021/05/28 10:59:13;;;;;;;5.50;2.67;;;15.40;86.00;;;;;;4931317;29;20036;-83
2021/05/28 11:02:00;;;;;;;5.55;2.10;;;15.40;86.50;;;;;;4944733;29;20406;-83
2021/05/28 11:04:31;;;;;;;4.50;2.00;;;15.50;85.60;;;;;;4934404;29;20046;-84
2021/05/28 11:07:00;;;;;;;3.33;1.65;;;15.60;83.90;;;;;;4946173;28;20049;-83
2021/05/28 11:09:43;;;;;;;3.15;1.70;;;15.70;82.60;;;;;;4932756;29;20118;-84
2021/05/28 11:12:35;;;;;;;6.38;2.10;;;15.90;82.90;;;;;;4940655;29;20070;-84
2021/05/28 11:15:12;;;;;;;4.70;2.00;;;15.90;83.10;;;;;;4916096;29;20055;-83
2021/05/28 11:17:53;;;;;;;4.57;2.33;;;15.90;83.60;;;;;;4916633;29;20432;-83
2021/05/28 11:20:24;;;;;;;8.70;2.25;;;15.80;82.80;;;;;;4931424;29;20047;-83
2021/05/28 11:22:51;;;;;;;4.53;1.98;;;15.80;83.20;;;;;;4947266;29;20104;-83
2021/05/28 11:25:22;;;;;;;2.20;1.83;;;15.90;83.20;;;;;;4915821;29;20215;-84
2021/05/28 11:28:11;;;;;;;7.95;2.22;;;16.00;82.50;;;;;;4946664;29;20515;-82
2021/05/28 11:30:40;;;;;;;5.72;2.22;;;16.10;82.60;;;;;;4892224;29;20291;-83
2021/05/28 11:33:06;;;;;;;4.90;2.08;;;16.20;83.10;;;;;;4932944;29;20447;-82
2021/05/28 11:35:42;;;;;;;3.55;2.67;;;16.20;83.30;;;;;;4917214;29;20052;-83
2021/05/28 11:38:14;;;;;;;4.07;2.08;;;16.30;81.60;;;;;;4931055;29;20036;-84
2021/05/28 11:40:43;;;;;;;2.72;1.70;;;16.30;82.60;;;;;;4948649;28;20039;-82
2021/05/28 11:43:16;;;;;;;2.45;1.45;;;16.40;81.70;;;;;;4949577;28;20040;-82
2021/05/28 11:45:53;;;;;;;2.90;1.65;;;16.50;80.10;;;;;;4916257;29;20048;-83
2021/05/28 11:48:25;;;;;;;3.15;1.40;;;16.50;79.90;;;;;;4947173;29;20491;-84
2021/05/28 11:50:56;;;;;;;4.50;1.90;;;16.50;78.30;;;;;;4916954;29;20330;-81
2021/05/28 11:53:23;;;;;;;5.22;1.90;;;16.40;78.70;;;;;;4934273;29;20028;-81
2021/05/28 11:55:50;;;;;;;3.78;2.20;;;16.30;80.10;;;;;;4918501;29;20075;-83
2021/05/28 11:58:18;;;;;;;7.05;1.80;;;16.30;80.00;;;;;;4934879;29;20031;-82
2021/05/28 12:00:46;;;;;;;7.28;2.10;;;16.30;80.80;;;;;;4934191;29;20139;-86
2021/05/28 12:03:12;;;;;;;4.40;1.90;;;16.30;80.50;;;;;;4934868;29;20042;-82
2021/05/28 12:05:40;;;;;;;3.30;1.90;;;16.40;80.10;;;;;;4917732;29;20091;-84
2021/05/28 12:08:18;;;;;;;5.22;1.90;;;16.50;79.70;;;;;;4917736;29;20042;-83
2021/05/28 12:10:54;;;;;;;4.80;1.80;;;16.60;77.10;;;;;;4937966;29;20255;-82
2021/05/28 12:13:27;;;;;;;4.22;1.80;;;16.70;77.30;;;;;;4936086;29;20039;-84
2021/05/28 12:15:59;;;;;;;6.97;2.08;;;16.70;78.50;;;;;;4948552;28;20039;-83
2021/05/28 12:18:34;;;;;;;6.60;2.10;;;16.80;79.40;;;;;;4912827;29;20051;-84
2021/05/28 12:21:02;;;;;;;4.70;1.80;;;16.90;78.20;;;;;;4915415;29;20079;-85
2021/05/28 12:23:33;;;;;;;2.60;1.90;;;17.00;75.50;;;;;;4935407;29;20066;-84
2021/05/28 12:26:02;;;;;;;4.85;1.60;;;17.00;75.90;;;;;;4932640;29;20044;-84
2021/05/28 12:28:28;;;;;;;3.63;1.70;;;17.00;74.90;;;;;;4914183;29;20043;-84
2021/05/28 12:30:57;;;;;;;6.18;2.17;;;16.90;74.70;;;;;;4933385;29;20031;-86
2021/05/28 12:33:45;;;;;;;2.85;1.80;;;16.90;75.10;;;;;;4914803;29;20039;-84
2021/05/28 12:36:12;;;;;;;7.55;2.10;;;17.00;75.90;;;;;;4925570;29;20127;-83
2021/05/28 12:38:42;;;;;;;2.97;1.50;;;17.00;76.20;;;;;;4929525;29;20157;-84
2021/05/28 12:41:10;;;;;;;4.13;1.70;;;17.10;75.50;;;;;;4915862;29;20066;-86
2021/05/28 12:43:41;;;;;;;3.08;1.70;;;17.10;76.20;;;;;;4911819;29;20099;-83
2021/05/28 12:46:16;;;;;;;2.30;1.98;;;17.10;74.70;;;;;;4916645;29;20055;-84
2021/05/28 12:48:55;;;;;;;3.47;1.80;;;17.10;74.00;;;;;;4927415;29;20048;-84
2021/05/28 12:51:36;;;;;;;4.07;1.80;;;17.10;73.70;;;;;;4915964;29;20110;-83